Time;durP1;ratioP1;P1;durP2;ratioP2;P2;SDS_P1;SDS_P2;PMS_P1;PMS_P2;Temp;Humidity;BMP_temperature;BMP_pressure;BME280_temperature;BME280_humidity;BME280_pressure;Samples;Min_cycle;Max_cycle;Signal;HPM_P1;HPM_P2
2022/11/22 00:00:21;;;;;;;2.60;2.50;;;;;;;9.65;97.97;98753.81;5071521;28;20555;-54
2022/11/22 00:02:59;;;;;;;3.20;3.00;;;;;;;9.62;98.02;98763.41;5071614;28;20253;-53
2022/11/22 00:05:31;;;;;;;3.50;3.30;;;;;;;9.60;98.12;98762.63;5071376;28;20238;-54
2022/11/22 00:08:03;;;;;;;3.30;3.10;;;;;;;9.51;98.42;98760.38;5071050;28;20249;-53
2022/11/22 00:10:31;;;;;;;3.20;3.00;;;;;;;9.43;99.50;98761.50;5071246;28;20211;-53
2022/11/22 00:13:14;;;;;;;3.53;3.33;;;;;;;9.26;99.69;98760.41;5070456;28;20204;-54
2022/11/22 00:15:46;;;;;;;3.30;3.10;;;;;;;9.21;100.00;98757.16;5070554;28;20600;-53
2022/11/22 00:18:14;;;;;;;3.30;3.10;;;;;;;9.25;100.00;98764.78;5070614;28;20640;-57
2022/11/22 00:20:53;;;;;;;2.90;2.80;;;;;;;9.23;99.76;98766.56;5070484;28;20223;-53
2022/11/22 00:23:25;;;;;;;3.40;3.20;;;;;;;9.20;99.53;98768.41;5070398;28;20203;-53
2022/11/22 00:26:01;;;;;;;3.23;3.03;;;;;;;9.14;98.39;98761.72;5070395;28;20219;-54
2022/11/22 00:28:32;;;;;;;3.13;2.97;;;;;;;9.09;99.31;98769.63;5070131;28;20277;-54
2022/11/22 00:31:05;;;;;;;3.13;2.93;;;;;;;9.08;98.39;98767.94;5070423;28;20196;-54
2022/11/22 00:33:37;;;;;;;3.20;3.00;;;;;;;8.99;99.23;98757.91;5070338;28;20196;-54
2022/11/22 00:36:09;;;;;;;4.33;3.90;;;;;;;8.99;100.00;98770.00;5069976;28;20200;-53
2022/11/22 00:38:39;;;;;;;3.43;3.23;;;;;;;8.94;99.79;98772.72;5070251;28;20692;-53
2022/11/22 00:41:26;;;;;;;3.83;3.50;;;;;;;8.86;100.00;98773.91;5069946;28;20216;-52
2022/11/22 00:43:58;;;;;;;3.63;3.43;;;;;;;8.87;100.00;98778.19;5070120;28;20200;-53
2022/11/22 00:46:31;;;;;;;3.33;3.13;;;;;;;8.86;100.00;98784.25;5069789;28;20196;-53
2022/11/22 00:49:08;;;;;;;3.47;3.27;;;;;;;8.87;99.68;98786.78;5070353;28;20196;-53
2022/11/22 00:51:49;;;;;;;3.50;3.30;;;;;;;8.86;99.76;98797.19;5069841;28;20360;-54
2022/11/22 00:54:18;;;;;;;3.30;3.10;;;;;;;8.85;99.92;98790.31;5069855;28;20235;-53
2022/11/22 00:57:02;;;;;;;3.33;3.13;;;;;;;8.76;99.57;98801.81;5069930;28;20200;-54
2022/11/22 00:59:38;;;;;;;3.63;3.43;;;;;;;8.67;99.89;98794.38;5069722;28;20200;-54
2022/11/22 01:02:15;;;;;;;3.50;3.30;;;;;;;8.65;100.00;98797.00;5069569;28;20231;-53
2022/11/22 01:04:49;;;;;;;3.53;3.23;;;;;;;8.65;99.64;98802.19;5069712;28;20205;-54
2022/11/22 01:07:21;;;;;;;3.80;3.50;;;;;;;8.68;99.63;98783.97;5069605;28;20203;-54
2022/11/22 01:10:00;;;;;;;4.17;3.87;;;;;;;8.70;99.88;98797.69;5069875;28;20223;-57
2022/11/22 01:12:30;;;;;;;4.40;4.10;;;;;;;8.69;100.00;98802.94;5069520;28;20192;-57
2022/11/22 01:15:03;;;;;;;4.37;4.07;;;;;;;8.60;100.00;98801.47;5069926;28;20661;-58
2022/11/22 01:17:35;;;;;;;3.60;3.40;;;;;;;8.58;100.00;98803.25;5069498;28;20208;-55
2022/11/22 01:20:15;;;;;;;3.70;3.50;;;;;;;8.69;100.00;98813.28;5069341;28;20199;-54
2022/11/22 01:22:42;;;;;;;3.80;3.60;;;;;;;8.73;99.34;98809.69;5069377;28;20666;-54
2022/11/22 01:25:11;;;;;;;3.37;3.07;;;;;;;8.75;98.98;98810.47;5069663;28;20199;-54
2022/11/22 01:27:47;;;;;;;3.83;3.63;;;;;;;8.72;99.09;98821.75;5069377;28;20202;-54
2022/11/22 01:30:24;;;;;;;3.90;3.70;;;;;;;8.61;98.40;98795.41;5069313;28;20202;-53
2022/11/22 01:32:53;;;;;;;3.77;3.47;;;;;;;8.65;99.20;98815.09;5069579;28;20196;-54
2022/11/22 01:35:26;;;;;;;3.37;3.17;;;;;;;8.62;98.61;98810.03;5069170;28;20203;-53
2022/11/22 01:37:59;;;;;;;3.77;3.43;;;;;;;8.61;98.94;98815.25;5069366;28;20196;-53
2022/11/22 01:40:30;;;;;;;3.30;3.10;;;;;;;8.58;99.36;98813.59;5071576;28;20651;-53
2022/11/22 01:43:31;;;;;;;3.70;3.50;;;;;;;8.53;99.79;98805.16;5073380;28;20196;-53
2022/11/22 01:46:01;;;;;;;4.00;3.80;;;;;;;8.53;99.65;98807.75;5073741;28;20666;-53
2022/11/22 01:48:51;;;;;;;4.20;3.90;;;;;;;8.53;99.87;98810.31;5074029;28;20257;-54
2022/11/22 01:51:33;;;;;;;4.10;3.90;;;;;;;8.53;100.00;98806.91;5074034;28;20674;-53
2022/11/22 01:54:20;;;;;;;3.83;3.53;;;;;;;8.48;100.00;98806.19;5073265;28;20208;-56
2022/11/22 01:57:09;;;;;;;4.30;4.00;;;;;;;8.47;99.93;98807.91;5073416;28;20526;-56
2022/11/22 01:59:58;;;;;;;4.40;4.10;;;;;;;8.39;100.00;98815.06;5052413;28;20549;-56
2022/11/22 02:02:30;;;;;;;4.73;4.33;;;;;;;8.39;100.00;98802.16;5073017;28;20669;-57
2022/11/22 02:05:04;;;;;;;3.77;3.57;;;;;;;8.29;100.00;98798.13;5072947;28;20291;-56
2022/11/22 02:07:42;;;;;;;3.90;3.70;;;;;;;8.32;100.00;98796.34;5072827;28;20200;-54
2022/11/22 02:10:14;;;;;;;3.73;3.40;;;;;;;8.30;100.00;98792.06;5072950;28;20223;-53
2022/11/22 02:12:44;;;;;;;3.70;3.50;;;;;;;8.28;100.00;98797.28;5072726;28;20196;-53
2022/11/22 02:15:16;;;;;;;3.40;3.20;;;;;;;8.28;100.00;98794.69;5073011;28;20290;-56
2022/11/22 02:17:51;;;;;;;3.40;3.20;;;;;;;8.23;100.00;98806.09;5072815;28;20192;-56
2022/11/22 02:20:20;;;;;;;4.73;3.70;;;;;;;8.19;100.00;98820.00;5072604;28;20196;-56
2022/11/22 02:22:58;;;;;;;3.43;3.23;;;;;;;8.19;100.00;98807.06;5072591;28;20196;-57
2022/11/22 02:25:36;;;;;;;4.20;3.90;;;;;;;8.19;100.00;98812.25;5072594;28;20203;-57
2022/11/22 02:28:10;;;;;;;3.83;3.60;;;;;;;8.14;100.00;98816.69;5072578;28;20585;-56
2022/11/22 02:30:49;;;;;;;4.20;3.90;;;;;;;8.14;100.00;98827.03;5072686;28;20555;-57
2022/11/22 02:33:32;;;;;;;3.53;3.33;;;;;;;8.11;100.00;98829.72;5072419;28;20585;-57
2022/11/22 02:36:17;;;;;;;4.30;4.00;;;;;;;8.09;100.00;98824.59;5072485;28;20674;-57
2022/11/22 02:38:47;;;;;;;4.83;4.20;;;;;;;8.18;100.00;98831.22;5072562;28;20231;-56
2022/11/22 02:41:14;;;;;;;4.83;3.53;;;;;;;8.17;100.00;98832.09;5072382;28;20712;-53
2022/11/22 02:43:50;;;;;;;4.60;3.73;;;;;;;8.15;100.00;98826.13;5072125;28;20776;-53
2022/11/22 02:46:22;;;;;;;4.20;3.90;;;;;;;8.16;100.00;98833.00;5071916;28;20200;-53
2022/11/22 02:49:00;;;;;;;4.20;3.90;;;;;;;8.16;100.00;98836.44;5072343;28;20673;-53
2022/11/22 02:51:30;;;;;;;4.10;3.80;;;;;;;8.20;100.00;98832.03;5072202;28;20196;-54
2022/11/22 02:53:59;;;;;;;4.43;4.13;;;;;;;8.21;100.00;98833.72;5072278;28;20196;-56
2022/11/22 02:56:37;;;;;;;3.93;3.70;;;;;;;8.26;100.00;98834.41;5072184;28;20206;-54
2022/11/22 02:59:13;;;;;;;4.57;4.20;;;;;;;8.28;100.00;98840.38;5071975;28;20199;-54
2022/11/22 03:01:45;;;;;;;4.60;4.20;;;;;;;8.23;100.00;98844.88;5071816;28;20219;-54
2022/11/22 03:04:25;;;;;;;4.20;3.90;;;;;;;8.22;100.00;98844.03;5071667;28;20196;-54
2022/11/22 03:06:58;;;;;;;3.70;3.50;;;;;;;8.31;100.00;98845.47;5045240;28;20195;-54
2022/11/22 03:09:27;;;;;;;4.00;3.70;;;;;;;8.20;100.00;98847.53;5071487;28;20315;-53
2022/11/22 03:12:09;;;;;;;4.73;4.33;;;;;;;8.16;100.00;98846.78;5072108;28;20192;-54
2022/11/22 03:15:04;;;;;;;4.20;3.90;;;;;;;8.24;100.00;98839.63;5071799;28;20231;-54
2022/11/22 03:17:46;;;;;;;3.90;3.70;;;;;;;8.15;100.00;98844.22;5071715;28;20206;-56
2022/11/22 03:20:20;;;;;;;4.07;3.77;;;;;;;8.03;100.00;98837.69;5071721;28;20876;-57
2022/11/22 03:22:55;;;;;;;3.97;3.73;;;;;;;8.11;100.00;98842.66;5071608;28;20220;-57
2022/11/22 03:25:36;;;;;;;4.40;4.10;;;;;;;8.00;100.00;98838.63;5071619;28;20245;-57
2022/11/22 03:28:09;;;;;;;4.13;3.83;;;;;;;8.02;100.00;98838.56;5071407;28;20192;-53
2022/11/22 03:30:49;;;;;;;4.70;4.27;;;;;;;7.98;100.00;98835.25;5071611;28;20200;-54
2022/11/22 03:33:33;;;;;;;;;;;;;;;;;;;;;
2022/11/22 03:36:03;;;;;;;4.57;4.23;;;;;;;7.85;100.00;98846.81;5071375;28;20206;-53
2022/11/22 03:38:30;;;;;;;4.53;4.10;;;;;;;7.88;100.00;98857.06;5069498;28;20200;-53
2022/11/22 03:41:03;;;;;;;4.90;4.43;;;;;;;7.83;100.00;98846.00;5071283;28;20315;-57
2022/11/22 03:43:32;;;;;;;4.73;4.43;;;;;;;7.79;100.00;98849.56;5071293;28;20200;-58
2022/11/22 03:46:00;;;;;;;5.53;4.70;;;;;;;7.85;100.00;98846.81;5071267;28;20301;-57
2022/11/22 03:48:33;;;;;;;4.97;4.57;;;;;;;7.90;100.00;98844.13;5071009;28;20195;-56
2022/11/22 03:51:09;;;;;;;4.73;4.43;;;;;;;7.81;100.00;98850.38;5071380;28;20560;-56
2022/11/22 03:53:55;;;;;;;4.97;4.57;;;;;;;7.81;100.00;98837.44;5070933;28;20196;-57
2022/11/22 03:56:27;;;;;;;4.67;4.37;;;;;;;7.79;100.00;98844.41;5070861;28;20196;-57
2022/11/22 04:01:43;;;;;;;5.20;4.67;;;;;;;7.69;100.00;98842.97;5069630;28;20643;-57
2022/11/22 04:04:12;;;;;;;5.57;5.07;;;;;;;7.76;100.00;98847.09;5070194;28;20203;-53
2022/11/22 04:06:41;;;;;;;5.33;4.93;;;;;;;7.72;100.00;98858.38;5070848;28;20208;-56
2022/11/22 04:09:17;;;;;;;4.73;4.33;;;;;;;7.67;100.00;98855.09;5070477;28;20550;-57
2022/11/22 04:11:54;;;;;;;6.17;4.77;;;;;;;7.63;100.00;98863.81;5070502;28;20672;-57
2022/11/22 04:17:39;;;;;;;6.10;5.60;;;;;;;7.68;100.00;98867.09;5070616;28;20214;-57
2022/11/22 04:23:11;;;;;;;4.87;4.53;;;;;;;7.60;100.00;98848.38;5070349;28;20801;-57
2022/11/22 04:25:41;;;;;;;4.37;4.07;;;;;;;7.71;100.00;98859.28;5070353;28;20198;-58
2022/11/22 04:28:21;;;;;;;5.20;4.80;;;;;;;7.71;100.00;98864.44;5070202;28;20200;-57
2022/11/22 04:33:42;;;;;;;4.97;4.67;;;;;;;7.81;100.00;98857.28;5067913;28;20338;-57
2022/11/22 04:36:11;;;;;;;4.63;4.33;;;;;;;7.85;100.00;98864.06;5068442;28;20274;-57
2022/11/22 04:38:51;;;;;;;4.17;3.87;;;;;;;7.80;100.00;98861.59;5068384;28;20230;-56
2022/11/22 04:46:50;;;;;;;4.40;4.00;;;;;;;7.90;100.00;98873.34;5068039;28;20223;-52
2022/11/22 04:49:37;;;;;;;4.47;4.17;;;;;;;7.87;100.00;98881.22;5069356;28;20219;-52
2022/11/22 04:54:52;;;;;;;4.40;4.10;;;;;;;7.85;100.00;98887.31;5069497;28;20215;-53
2022/11/22 04:57:26;;;;;;;4.70;4.40;;;;;;;7.91;100.00;98880.22;5068932;28;20223;-54
2022/11/22 05:00:01;;;;;;;5.00;4.50;;;;;;;7.89;100.00;98876.88;5068840;28;20230;-54
2022/11/22 05:02:31;;;;;;;4.40;4.10;;;;;;;7.97;100.00;98889.56;5069373;28;20231;-53
2022/11/22 05:05:15;;;;;;;4.80;4.30;;;;;;;7.96;100.00;98904.22;5068833;28;20308;-53
2022/11/22 05:07:45;;;;;;;5.13;4.70;;;;;;;7.91;100.00;98911.22;5069212;28;20689;-53
2022/11/22 05:10:26;;;;;;;7.57;5.03;;;;;;;8.12;100.00;98914.13;5068466;28;20229;-54
2022/11/22 05:13:15;;;;;;;5.27;4.50;;;;;;;8.03;100.00;98923.81;5069296;28;20310;-56
2022/11/22 05:15:45;;;;;;;6.07;4.87;;;;;;;7.95;100.00;98930.09;5058741;28;20216;-54
2022/11/22 05:18:12;;;;;;;5.27;4.67;;;;;;;7.84;100.00;98925.22;5069653;28;20224;-54
2022/11/22 05:20:45;;;;;;;5.07;4.57;;;;;;;7.89;100.00;98935.44;5068549;28;20220;-54
2022/11/22 05:25:59;;;;;;;5.03;4.73;;;;;;;7.94;100.00;98949.91;5069329;28;20222;-54
2022/11/22 05:28:33;;;;;;;5.00;4.60;;;;;;;7.99;100.00;98957.56;5069070;28;20229;-54
2022/11/22 05:31:16;;;;;;;5.23;4.83;;;;;;;7.95;100.00;98956.78;5069263;28;20342;-52
2022/11/22 05:33:51;;;;;;;4.97;4.57;;;;;;;7.97;100.00;98964.50;5068177;28;20239;-52
2022/11/22 05:36:27;;;;;;;5.67;5.27;;;;;;;7.94;100.00;98965.41;5069035;28;20219;-53
2022/11/22 05:38:54;;;;;;;5.30;4.90;;;;;;;7.94;100.00;98969.72;5069095;28;20720;-51
2022/11/22 05:41:28;;;;;;;6.23;5.57;;;;;;;7.93;100.00;98971.47;5069065;28;20306;-55
2022/11/22 05:44:04;;;;;;;5.37;4.87;;;;;;;7.97;100.00;98970.50;5069659;28;20227;-56
2022/11/22 05:46:39;;;;;;;7.87;5.17;;;;;;;8.03;100.00;98980.66;5069759;28;20682;-55
2022/11/22 05:49:13;;;;;;;5.73;5.23;;;;;;;8.03;100.00;98985.84;5069381;28;20227;-55
2022/11/22 05:51:50;;;;;;;8.20;5.87;;;;;;;8.08;100.00;98987.47;5070036;28;20728;-56
2022/11/22 05:54:28;;;;;;;5.47;4.97;;;;;;;8.01;100.00;98977.25;5069738;28;20286;-55
2022/11/22 05:56:55;;;;;;;6.20;5.50;;;;;;;8.16;100.00;98988.94;5069818;28;20192;-56
2022/11/22 05:59:35;;;;;;;6.03;4.90;;;;;;;8.10;100.00;98980.50;5069497;28;20233;-56
2022/11/22 06:02:06;;;;;;;7.03;5.40;;;;;;;8.21;100.00;98994.84;5069648;28;20227;-56
2022/11/22 06:04:35;;;;;;;6.17;5.57;;;;;;;8.31;100.00;98990.25;5070006;28;20196;-57
2022/11/22 06:07:13;;;;;;;6.27;5.60;;;;;;;8.32;99.48;98992.00;5069673;28;20287;-57
2022/11/22 06:09:51;;;;;;;5.77;5.27;;;;;;;8.32;99.49;98986.81;5069886;28;20223;-53
2022/11/22 06:12:21;;;;;;;6.30;5.40;;;;;;;8.43;99.76;98989.94;5069566;28;20196;-57
2022/11/22 06:14:48;;;;;;;6.80;5.60;;;;;;;8.46;100.00;98997.63;5069619;28;20214;-51
2022/11/22 06:17:19;;;;;;;5.70;5.20;;;;;;;8.61;98.57;98997.16;5069960;28;20208;-53
2022/11/22 06:19:49;;;;;;;5.90;5.30;;;;;;;8.76;97.81;98990.69;5069455;28;20196;-52
2022/11/22 06:22:17;;;;;;;5.80;5.03;;;;;;;8.83;97.71;99001.69;5069448;28;20231;-51
2022/11/22 06:24:44;;;;;;;5.80;5.30;;;;;;;8.90;96.32;98990.28;5069691;28;20200;-53
2022/11/22 06:27:11;;;;;;;8.00;5.97;;;;;;;9.01;96.62;98993.41;5072721;28;20665;-53
2022/11/22 06:29:38;;;;;;;9.27;5.67;;;;;;;8.93;96.41;98988.44;5073546;28;20211;-54
2022/11/22 06:32:08;;;;;;;8.47;6.07;;;;;;;9.01;96.70;98986.47;5061007;28;20231;-53
2022/11/22 06:34:35;;;;;;;6.40;5.80;;;;;;;8.97;97.60;98986.59;5052798;28;20224;-54
2022/11/22 06:37:02;;;;;;;6.27;5.67;;;;;;;9.04;96.99;98983.78;5052967;28;20232;-53
2022/11/22 06:39:30;;;;;;;5.73;5.23;;;;;;;9.08;96.77;98987.13;5052760;28;20220;-52
2022/11/22 06:41:59;;;;;;;7.10;5.63;;;;;;;9.22;96.04;98997.91;5052736;28;20243;-53
2022/11/22 06:44:29;;;;;;;6.57;6.07;;;;;;;9.28;95.29;99014.97;5052827;28;20224;-53
2022/11/22 06:46:56;;;;;;;8.70;5.67;;;;;;;9.26;95.99;99030.56;5052286;28;20220;-56
2022/11/22 06:49:22;;;;;;;8.83;5.33;;;;;;;9.27;96.37;99042.63;5052584;28;20224;-56
2022/11/22 06:51:53;;;;;;;5.37;4.87;;;;;;;9.31;96.18;99043.38;5065369;28;20741;-57
2022/11/22 06:54:20;;;;;;;7.33;5.93;;;;;;;9.34;95.76;99038.97;5072398;28;20315;-57
2022/11/22 06:56:48;;;;;;;6.23;5.50;;;;;;;9.30;95.41;99037.34;5079128;28;20234;-56
2022/11/22 06:59:18;;;;;;;8.17;6.33;;;;;;;9.26;94.53;99006.41;5092886;28;20866;-57
2022/11/22 07:01:50;;;;;;;5.80;5.40;;;;;;;9.37;95.14;99033.66;5092503;28;20230;-53
2022/11/22 07:04:20;;;;;;;8.40;6.43;;;;;;;9.46;94.59;99054.13;5092843;28;20211;-52
2022/11/22 07:06:47;;;;;;;6.70;6.00;;;;;;;9.52;94.24;99058.25;5092678;28;20195;-53
2022/11/22 07:09:14;;;;;;;6.60;6.00;;;;;;;9.58;94.58;99052.03;5092580;28;20318;-54
2022/11/22 07:11:41;;;;;;;11.90;8.80;;;;;;;9.67;94.17;99043.94;5092861;28;20191;-52
2022/11/22 07:14:09;;;;;;;15.43;9.83;;;;;;;9.72;94.15;99036.84;5092690;28;20195;-52
2022/11/22 07:16:41;;;;;;;11.20;8.47;;;;;;;9.84;94.09;99044.22;5092754;28;20199;-54
2022/11/22 07:19:11;;;;;;;7.93;7.13;;;;;;;9.89;93.93;99042.34;5092295;28;20214;-53
2022/11/22 07:21:42;;;;;;;9.07;7.50;;;;;;;10.01;93.38;99051.44;5092637;28;20195;-52
2022/11/22 07:24:09;;;;;;;11.90;7.47;;;;;;;10.04;93.41;99041.84;5091934;28;20306;-53
2022/11/22 07:26:36;;;;;;;8.03;7.33;;;;;;;10.15;92.93;99051.84;5091570;28;20195;-52
2022/11/22 07:29:16;;;;;;;8.73;7.03;;;;;;;10.18;92.87;99050.00;5091834;28;20573;-52
2022/11/22 07:31:46;;;;;;;7.30;6.70;;;;;;;10.28;92.43;99039.28;5091454;28;20195;-56
2022/11/22 07:34:13;;;;;;;7.23;5.90;;;;;;;10.28;92.06;99047.06;5091906;28;20405;-56
2022/11/22 07:36:40;;;;;;;6.17;5.57;;;;;;;10.28;91.39;99045.31;5091273;28;20195;-52
2022/11/22 07:39:07;;;;;;;7.33;6.57;;;;;;;10.25;91.93;99036.84;5090877;28;20601;-52
2022/11/22 07:41:33;;;;;;;6.57;5.97;;;;;;;10.36;91.73;99039.91;5091661;28;20232;-53
2022/11/22 07:44:00;;;;;;;10.50;6.53;;;;;;;10.48;91.70;99034.28;5091164;28;20230;-53
2022/11/22 07:46:31;;;;;;;9.07;7.30;;;;;;;10.61;90.87;99032.91;5090966;28;20202;-53
2022/11/22 07:48:59;;;;;;;9.50;8.37;;;;;;;10.66;90.76;99037.94;5091366;28;20195;-53
2022/11/22 07:54:48;;;;;;;8.73;6.50;;;;;;;10.74;90.61;99018.56;5091158;28;20224;-52
2022/11/22 07:57:15;;;;;;;7.47;5.23;;;;;;;10.66;90.39;99020.63;5091526;28;20205;-53
2022/11/22 07:59:42;;;;;;;9.90;5.97;;;;;;;10.71;90.74;99023.06;5090820;28;20206;-54
2022/11/22 08:02:12;;;;;;;6.10;5.60;;;;;;;10.74;89.84;99018.56;5090763;28;20229;-57
2022/11/22 08:04:39;;;;;;;6.83;6.13;;;;;;;10.75;89.93;99011.63;5090905;28;20203;-54
2022/11/22 08:07:06;;;;;;;9.30;5.50;;;;;;;10.73;90.64;99016.03;5090661;28;20676;-54
2022/11/22 08:09:33;;;;;;;11.93;5.20;;;;;;;10.88;89.92;99012.88;5090784;28;20253;-53
2022/11/22 08:12:00;;;;;;;8.50;5.50;;;;;;;10.85;88.65;99005.19;5090683;28;20199;-56
2022/11/22 08:14:27;;;;;;;5.87;5.37;;;;;;;10.96;89.08;99013.41;5090541;28;20195;-56
2022/11/22 08:16:54;;;;;;;8.40;5.27;;;;;;;11.03;87.90;99019.22;5090730;28;20203;-56
2022/11/22 08:19:22;;;;;;;6.43;5.93;;;;;;;11.08;88.28;99025.94;5090698;28;20581;-57
2022/11/22 08:21:49;;;;;;;6.83;6.03;;;;;;;11.16;88.80;99020.47;5090778;28;20583;-56
2022/11/22 08:24:16;;;;;;;6.40;5.90;;;;;;;11.29;87.25;99021.63;5090338;28;20218;-56
2022/11/22 08:26:44;;;;;;;5.37;5.00;;;;;;;11.24;87.07;99018.41;5090607;28;20583;-53
2022/11/22 08:29:12;;;;;;;6.97;5.60;;;;;;;11.30;85.94;99025.94;5090321;28;20206;-54
2022/11/22 08:31:39;;;;;;;8.50;7.70;;;;;;;11.33;85.69;99018.03;5090407;28;20222;-52
2022/11/22 08:34:06;;;;;;;7.70;5.97;;;;;;;11.39;84.61;99009.16;5090239;28;20740;-53
2022/11/22 08:36:35;;;;;;;6.50;5.30;;;;;;;11.46;82.73;99010.59;5090238;28;20214;-52
2022/11/22 08:39:02;;;;;;;11.67;9.23;;;;;;;11.48;82.35;99000.97;5090197;28;20203;-52
2022/11/22 08:41:29;;;;;;;4.63;4.33;;;;;;;11.48;82.64;98994.03;5089894;28;20199;-52
2022/11/22 08:43:56;;;;;;;5.43;4.40;;;;;;;11.49;82.60;98980.13;5090073;28;20226;-52
2022/11/22 08:46:23;;;;;;;5.83;4.33;;;;;;;11.59;82.16;98978.84;5089997;28;20206;-53
2022/11/22 08:48:52;;;;;;;6.60;4.30;;;;;;;11.73;80.75;98972.22;5090445;28;20227;-52
2022/11/22 08:51:19;;;;;;;6.30;3.90;;;;;;;11.65;79.65;98981.16;5090075;28;20205;-53
2022/11/22 08:53:47;;;;;;;4.03;3.80;;;;;;;11.78;79.96;98980.69;5090283;28;20196;-53
2022/11/22 08:56:15;;;;;;;4.43;3.60;;;;;;;11.87;78.33;98968.16;5090284;28;20885;-53
2022/11/22 08:58:43;;;;;;;4.80;4.50;;;;;;;11.99;77.67;98959.81;5090008;28;20205;-54
2022/11/22 09:01:12;;;;;;;6.37;4.10;;;;;;;11.90;78.74;98949.81;5089754;28;20199;-53
2022/11/22 09:03:39;;;;;;;8.03;5.47;;;;;;;11.99;79.23;98951.16;5089964;28;20222;-53
2022/11/22 09:06:09;;;;;;;9.33;7.37;;;;;;;11.99;79.88;98943.38;5089770;28;20195;-52
2022/11/22 09:08:37;;;;;;;12.93;7.07;;;;;;;12.07;80.58;98949.09;5089857;28;20791;-54
2022/11/22 09:11:08;;;;;;;11.27;6.60;;;;;;;12.05;80.06;98932.72;5089713;28;20203;-52
2022/11/22 09:13:35;;;;;;;15.07;6.17;;;;;;;12.17;79.71;98934.78;5089821;28;20196;-53
2022/11/22 09:16:03;;;;;;;7.30;6.53;;;;;;;12.20;79.34;98932.00;5089550;28;20200;-52
2022/11/22 09:18:29;;;;;;;11.07;7.07;;;;;;;12.40;79.78;98945.91;5089551;28;20205;-53
2022/11/22 09:20:59;;;;;;;9.87;7.03;;;;;;;12.19;79.66;98948.53;5089779;28;20206;-52
2022/11/22 09:23:26;;;;;;;9.57;8.57;;;;;;;12.28;80.08;98937.75;5089386;28;20215;-53
2022/11/22 09:25:57;;;;;;;11.93;7.30;;;;;;;12.35;80.12;98933.94;5089820;28;20584;-54
2022/11/22 09:28:29;;;;;;;12.13;6.63;;;;;;;12.44;79.86;98931.81;5089497;28;20264;-54
2022/11/22 09:31:00;;;;;;;7.97;5.77;;;;;;;12.41;78.59;98931.97;5089887;28;20191;-53
2022/11/22 09:33:27;;;;;;;5.10;4.80;;;;;;;12.36;78.89;98916.56;5089280;28;20240;-54
2022/11/22 09:35:59;;;;;;;6.73;6.13;;;;;;;12.41;78.65;98916.38;5089721;28;20229;-53
2022/11/22 09:38:26;;;;;;;7.07;5.30;;;;;;;12.38;79.10;98911.28;5089449;28;20198;-53
2022/11/22 09:40:53;;;;;;;6.13;5.53;;;;;;;12.49;79.06;98914.25;5089541;28;20234;-53
2022/11/22 09:43:30;;;;;;;8.63;5.80;;;;;;;12.54;78.09;98926.13;5089554;28;20611;-54
2022/11/22 09:46:10;;;;;;;8.77;5.00;;;;;;;12.58;78.82;98935.50;5085197;28;20592;-57
2022/11/22 09:48:55;;;;;;;7.33;6.50;;;;;;;12.75;78.23;98933.88;5048257;28;20224;-56
2022/11/22 09:51:28;;;;;;;5.47;5.00;;;;;;;12.83;78.80;98936.94;5048189;28;20223;-55
2022/11/22 09:54:04;;;;;;;4.57;4.23;;;;;;;12.95;77.94;98945.03;5048918;28;20217;-56
2022/11/22 09:56:32;;;;;;;14.33;11.13;;;;;;;13.07;78.17;98934.03;5048393;28;20717;-55
2022/11/22 09:59:05;;;;;;;4.40;3.90;;;;;;;13.20;76.12;98949.09;5048788;28;20220;-55
2022/11/22 10:01:39;;;;;;;3.70;3.50;;;;;;;13.31;75.79;98946.81;5050561;28;20220;-55
2022/11/22 10:04:13;;;;;;;4.37;3.97;;;;;;;13.46;75.61;98940.84;5053080;28;20238;-54
2022/11/22 10:06:43;;;;;;;5.03;3.90;;;;;;;13.46;74.75;98940.84;5059590;28;20233;-53
2022/11/22 10:09:26;;;;;;;6.60;4.97;;;;;;;13.51;74.63;98928.44;5091952;28;20231;-54
2022/11/22 10:11:57;;;;;;;4.60;4.30;;;;;;;13.53;75.08;98912.72;5092432;28;20203;-54
2022/11/22 10:14:36;;;;;;;6.13;5.63;;;;;;;13.65;74.69;98918.16;5092958;28;20242;-54
2022/11/22 10:17:18;;;;;;;5.73;5.23;;;;;;;13.54;75.45;98911.78;5093281;28;20199;-56
2022/11/22 10:19:53;;;;;;;9.53;6.60;;;;;;;13.44;75.99;98906.19;5093072;28;20206;-56
2022/11/22 10:22:20;;;;;;;7.67;5.83;;;;;;;13.52;76.26;98898.00;5092877;28;20799;-55
2022/11/22 10:24:47;;;;;;;9.83;6.60;;;;;;;13.62;76.78;98899.22;5092676;28;20223;-56
2022/11/22 10:27:15;;;;;;;7.40;5.83;;;;;;;13.70;77.04;98895.28;5092694;28;20203;-57
2022/11/22 10:29:51;;;;;;;9.50;5.97;;;;;;;13.65;76.66;98896.44;5092658;28;20199;-57
2022/11/22 10:32:26;;;;;;;6.30;5.70;;;;;;;13.69;76.68;98911.00;5092688;28;20191;-56
2022/11/22 10:35:07;;;;;;;6.73;6.10;;;;;;;13.63;77.79;98893.91;5092770;28;20247;-55
2022/11/22 10:37:43;;;;;;;6.57;5.50;;;;;;;13.64;75.93;98906.03;5092502;28;20203;-56
2022/11/22 10:40:19;;;;;;;7.20;6.60;;;;;;;13.61;77.08;98910.56;5092752;28;20422;-57
2022/11/22 10:43:13;;;;;;;6.33;5.90;;;;;;;13.69;76.73;98911.84;5092553;28;20194;-55
2022/11/22 10:45:46;;;;;;;8.47;7.57;;;;;;;13.73;76.52;98913.38;5092297;28;20203;-56
2022/11/22 10:48:22;;;;;;;6.93;6.43;;;;;;;13.68;76.71;98904.94;5092510;28;20199;-56
2022/11/22 10:51:02;;;;;;;10.97;7.00;;;;;;;13.61;77.28;98910.56;5092422;28;20206;-56
2022/11/22 10:53:43;;;;;;;7.53;6.93;;;;;;;13.62;77.60;98894.00;5092526;28;20203;-56
2022/11/22 10:56:19;;;;;;;8.57;7.67;;;;;;;13.55;77.58;98893.44;5092289;28;20201;-56
2022/11/22 10:59:00;;;;;;;8.70;7.90;;;;;;;13.65;77.62;98899.06;5092396;28;20195;-56
2022/11/22 11:01:37;;;;;;;8.40;6.60;;;;;;;13.70;77.48;98887.47;5091944;28;20196;-56
2022/11/22 11:04:05;;;;;;;8.53;7.07;;;;;;;13.68;77.27;98880.63;5092086;28;20226;-56
2022/11/22 11:06:40;;;;;;;8.03;7.23;;;;;;;13.41;77.82;98882.91;5091859;28;20203;-56
2022/11/22 11:09:11;;;;;;;8.17;7.37;;;;;;;13.42;77.83;98864.56;5092223;28;20606;-56
2022/11/22 11:11:41;;;;;;;6.97;6.37;;;;;;;13.39;77.98;98861.28;5091437;28;20688;-56
2022/11/22 11:14:17;;;;;;;8.43;6.40;;;;;;;13.30;77.70;98846.09;5091208;28;20191;-56
2022/11/22 11:16:47;;;;;;;7.50;6.70;;;;;;;13.27;78.38;98851.47;5091722;28;20210;-55
2022/11/22 11:19:19;;;;;;;8.53;6.07;;;;;;;13.20;78.64;98843.13;5092265;28;20587;-56
2022/11/22 11:21:50;;;;;;;7.03;6.37;;;;;;;13.14;78.87;98829.50;5091685;28;20203;-56
2022/11/22 11:24:18;;;;;;;10.67;7.73;;;;;;;13.21;78.67;98841.31;5091658;28;20223;-55
2022/11/22 11:26:53;;;;;;;13.83;8.50;;;;;;;13.20;78.67;98837.91;5091808;28;20638;-56
2022/11/22 11:29:38;;;;;;;8.77;6.67;;;;;;;13.19;79.06;98827.56;5091207;28;20676;-56
2022/11/22 11:32:10;;;;;;;6.57;5.40;;;;;;;13.19;78.86;98812.75;5091850;28;20296;-54
2022/11/22 11:34:40;;;;;;;6.33;5.83;;;;;;;13.23;79.64;98816.88;5091534;28;20580;-53
2022/11/22 11:37:18;;;;;;;5.23;4.73;;;;;;;13.24;78.76;98813.34;5086927;28;20215;-55
2022/11/22 11:39:47;;;;;;;5.20;4.80;;;;;;;13.38;78.49;98823.09;5091721;28;20195;-53
2022/11/22 11:42:29;;;;;;;4.90;4.60;;;;;;;13.54;77.93;98813.56;5091632;28;20195;-56
2022/11/22 11:45:20;;;;;;;7.27;4.87;;;;;;;13.64;77.22;98814.78;5090202;28;20227;-55
2022/11/22 11:47:49;;;;;;;5.87;4.33;;;;;;;13.78;77.23;98821.84;5091894;28;20199;-54
2022/11/22 11:50:20;;;;;;;8.80;4.37;;;;;;;13.65;76.55;98808.63;5091845;28;20198;-54
2022/11/22 11:52:52;;;;;;;4.00;3.70;;;;;;;13.74;76.70;98809.91;5092170;28;20677;-54
2022/11/22 11:55:19;;;;;;;6.93;3.93;;;;;;;13.79;76.17;98807.88;5091853;28;20277;-54
2022/11/22 11:57:48;;;;;;;5.20;4.70;;;;;;;13.73;76.39;98803.00;5091551;28;20199;-52
2022/11/22 12:00:21;;;;;;;6.63;4.53;;;;;;;13.56;77.36;98798.66;5091845;28;20227;-53
2022/11/22 12:02:55;;;;;;;4.80;4.43;;;;;;;13.60;77.72;98804.56;5091700;28;20572;-53
2022/11/22 12:05:28;;;;;;;5.00;4.50;;;;;;;13.50;77.75;98800.75;5091776;28;20741;-53
2022/11/22 12:07:55;;;;;;;5.60;4.63;;;;;;;13.56;78.01;98790.84;5091710;28;20235;-52
2022/11/22 12:10:41;;;;;;;4.77;4.37;;;;;;;13.62;77.79;98790.53;5091349;28;20195;-53
2022/11/22 12:13:15;;;;;;;9.20;5.00;;;;;;;13.67;77.92;98800.72;5091712;28;20290;-53
2022/11/22 12:15:51;;;;;;;5.87;4.63;;;;;;;13.73;78.40;98801.25;5091328;28;20210;-53
2022/11/22 12:18:36;;;;;;;5.37;4.87;;;;;;;13.70;78.86;98809.22;5091491;28;20209;-55
2022/11/22 12:21:13;;;;;;;8.67;4.83;;;;;;;13.75;78.99;98822.88;5091477;28;20247;-56
2022/11/22 12:23:46;;;;;;;9.43;5.50;;;;;;;13.69;78.83;98814.50;5090616;28;20272;-56
2022/11/22 12:26:14;;;;;;;8.50;5.00;;;;;;;13.59;79.12;98801.13;5091440;28;20199;-55
2022/11/22 12:28:41;;;;;;;4.77;4.37;;;;;;;13.55;79.49;98799.59;5091013;28;20345;-55